Jenkins, Texas
Current Conditions -  °F | °C
As of 5:35 AM on Saturday 20 Dec 2014 (Local Time) from KOSA Reporting Station
Overcast Overcast  
Wind Chill: 45°   Ceiling: 500
Heat Index: 45°   Visibility: 3mi
Dew Point: 44°   Wind: 3mph
Humidity: 97%   Direction: 30°NNE
Pressure: 30.23"   Gusts: NA
Location:  33.0336°N, 94.7384°W
Report Text: KOSA 201135Z AUTO 03003KT 3SM OVC005 07/07 A3023 RMK AO1 T00700066
Loading
Personal Weather Stations






























Interactive Weather Map New forecast layout! Learn more

10-Day Weather Forecast

Advertisements
Track Severe Weather on mobile